Time;durP1;ratioP1;P1;durP2;ratioP2;P2;SDS_P1;SDS_P2;PMS_P1;PMS_P2;Temp;Humidity;BMP_temperature;BMP_pressure;BME280_temperature;BME280_humidity;BME280_pressure;Samples;Min_cycle;Max_cycle;Signal;HPM_P1;HPM_P2
2022/09/05 00:00:25;;;;;;;4.00;2.75;;;18.00;99.90;;;;;;4956735;28;20491;-86
2022/09/05 00:03:32;;;;;;;7.85;2.58;;;17.90;99.90;;;;;;4950098;28;20440;-86
2022/09/05 00:06:11;;;;;;;5.18;2.67;;;17.90;99.90;;;;;;4919738;28;20074;-86
2022/09/05 00:08:55;;;;;;;4.43;2.60;;;17.80;99.90;;;;;;4961259;28;20024;-86
2022/09/05 00:11:30;;;;;;;4.30;2.70;;;17.80;99.90;;;;;;4945215;28;20047;-86
2022/09/05 00:14:08;;;;;;;5.78;2.45;;;17.80;99.90;;;;;;4960506;28;20587;-86
2022/09/05 00:16:51;;;;;;;7.00;3.03;;;17.80;99.90;;;;;;4951835;28;20448;-87
2022/09/05 00:19:27;;;;;;;5.40;2.53;;;17.70;99.90;;;;;;4947474;28;20027;-87
2022/09/05 00:21:56;;;;;;;4.28;2.83;;;17.70;99.90;;;;;;4941992;28;20024;-86
2022/09/05 00:24:45;;;;;;;4.28;3.35;;;17.60;99.90;;;;;;4943115;28;20786;-86
2022/09/05 00:27:29;;;;;;;5.80;2.90;;;17.60;99.90;;;;;;4946300;28;20043;-86
2022/09/05 00:30:13;;;;;;;5.90;3.28;;;17.60;99.90;;;;;;4946909;28;20376;-86
2022/09/05 00:32:38;;;;;;;;;;;17.50;99.90;;;;;;4951126;28;20039;-86
2022/09/05 00:35:22;;;;;;;9.95;3.10;;;17.50;99.90;;;;;;4944283;28;19919;-85
2022/09/05 00:37:49;;;;;;;4.50;2.53;;;17.50;99.90;;;;;;4952268;28;20028;-86
2022/09/05 00:40:37;;;;;;;3.90;2.63;;;17.50;99.90;;;;;;4963524;28;20033;-85
2022/09/05 00:43:26;;;;;;;6.65;2.85;;;17.50;99.90;;;;;;4942930;28;20114;-86
2022/09/05 00:46:00;;;;;;;5.18;2.40;;;17.40;99.90;;;;;;4949336;28;20053;-85
2022/09/05 00:48:36;;;;;;;4.35;2.95;;;17.40;99.90;;;;;;4947605;28;20380;-85
2022/09/05 00:51:02;;;;;;;4.07;2.58;;;17.40;99.90;;;;;;4945795;28;20129;-86
2022/09/05 00:53:45;;;;;;;6.13;2.65;;;17.30;99.90;;;;;;4942836;28;20058;-85
2022/09/05 00:56:45;;;;;;;10.00;2.70;;;17.30;99.90;;;;;;4957525;28;20807;-86
2022/09/05 00:59:39;;;;;;;10.77;2.70;;;17.30;99.90;;;;;;4948123;28;20479;-85
2022/09/05 01:02:29;;;;;;;5.10;3.17;;;17.30;99.90;;;;;;4947565;28;20094;-86
2022/09/05 01:05:19;;;;;;;5.75;2.42;;;17.20;99.90;;;;;;4959206;28;20036;-86
2022/09/05 01:08:17;;;;;;;5.63;3.00;;;17.20;99.90;;;;;;4943044;28;20516;-86
2022/09/05 01:11:11;;;;;;;6.53;2.92;;;17.20;99.90;;;;;;4943348;28;20067;-86
2022/09/05 01:14:30;;;;;;;6.53;2.90;;;17.10;99.90;;;;;;4944902;28;20500;-84
2022/09/05 01:17:10;;;;;;;5.00;2.65;;;17.10;99.90;;;;;;4881130;29;20489;-85
2022/09/05 01:20:10;;;;;;;6.68;2.63;;;17.00;99.90;;;;;;4942880;28;20062;-85
2022/09/05 01:22:47;;;;;;;4.05;2.70;;;17.00;99.90;;;;;;4945559;28;20073;-87
2022/09/05 01:25:50;;;;;;;3.70;2.65;;;17.00;99.90;;;;;;4938830;28;20134;-86
2022/09/05 01:28:25;;;;;;;5.40;2.42;;;17.00;99.90;;;;;;4948359;28;20078;-86
2022/09/05 01:31:06;;;;;;;6.55;3.17;;;17.00;99.90;;;;;;4953390;28;20069;-86
2022/09/05 01:33:54;;;;;;;3.92;2.80;;;16.90;99.90;;;;;;4947638;28;20504;-86
2022/09/05 01:36:47;;;;;;;5.50;3.00;;;16.90;99.90;;;;;;4941936;28;20138;-86
2022/09/05 01:39:19;;;;;;;3.78;2.50;;;16.90;99.90;;;;;;4943793;28;20035;-86
2022/09/05 01:42:02;;;;;;;4.85;3.17;;;16.80;99.90;;;;;;4961155;28;20403;-85
2022/09/05 01:45:02;;;;;;;4.97;2.88;;;16.80;99.90;;;;;;4943873;28;20476;-86
2022/09/05 01:47:52;;;;;;;4.60;2.60;;;16.80;99.90;;;;;;4948150;28;20551;-86
2022/09/05 01:50:34;;;;;;;5.13;3.22;;;16.80;99.90;;;;;;4948292;28;20031;-86
2022/09/05 01:53:24;;;;;;;5.70;2.60;;;16.80;99.90;;;;;;4947126;28;20019;-86
2022/09/05 01:55:55;;;;;;;4.00;2.60;;;16.80;99.90;;;;;;4949553;28;20074;-85
2022/09/05 01:58:36;;;;;;;9.00;3.00;;;16.70;99.90;;;;;;4945792;28;20432;-85
2022/09/05 02:01:04;;;;;;;3.47;2.35;;;16.70;99.90;;;;;;4954934;28;20490;-85
2022/09/05 02:03:49;;;;;;;3.53;2.40;;;16.70;99.90;;;;;;4948959;28;20039;-85
2022/09/05 02:06:30;;;;;;;17.08;3.38;;;16.60;99.90;;;;;;4941530;28;20325;-84
2022/09/05 02:09:04;;;;;;;4.30;2.60;;;16.60;99.90;;;;;;4944769;28;20038;-84
2022/09/05 02:11:44;;;;;;;4.05;2.47;;;16.60;99.90;;;;;;4943649;28;20031;-85
2022/09/05 02:14:19;;;;;;;5.35;2.67;;;16.50;99.90;;;;;;4948049;28;20024;-84
2022/09/05 02:16:44;;;;;;;4.80;2.50;;;16.50;99.90;;;;;;4947746;28;20364;-85
2022/09/05 02:19:24;;;;;;;13.82;3.67;;;16.50;99.90;;;;;;4943257;28;20030;-85
2022/09/05 02:22:08;;;;;;;4.78;3.05;;;16.40;99.90;;;;;;4956574;28;20065;-85
2022/09/05 02:24:44;;;;;;;5.80;2.65;;;16.40;99.90;;;;;;4946145;28;20027;-85
2022/09/05 02:27:40;;;;;;;5.80;2.95;;;16.40;99.90;;;;;;4949307;28;20031;-85
2022/09/05 02:30:23;;;;;;;6.10;3.25;;;16.40;99.90;;;;;;4952011;28;20029;-85
2022/09/05 02:33:10;;;;;;;6.40;2.50;;;16.40;99.90;;;;;;4952475;28;20035;-85
2022/09/05 02:35:59;;;;;;;5.53;3.17;;;16.40;99.90;;;;;;4952334;28;20566;-84
2022/09/05 02:38:51;;;;;;;5.07;2.50;;;16.40;99.90;;;;;;4952673;28;20030;-85
2022/09/05 02:42:03;;;;;;;5.13;2.90;;;16.40;99.90;;;;;;4947593;28;20027;-84
2022/09/05 02:44:39;;;;;;;4.47;3.10;;;16.30;99.90;;;;;;4950790;28;20050;-85
2022/09/05 02:47:21;;;;;;;8.30;3.80;;;16.30;99.90;;;;;;4948641;28;20495;-85
2022/09/05 02:50:29;;;;;;;7.85;3.70;;;16.30;99.90;;;;;;4947144;28;20042;-85
2022/09/05 02:52:56;;;;;;;6.55;3.20;;;16.20;99.90;;;;;;4952617;28;20026;-85
2022/09/05 02:55:40;;;;;;;3.90;2.72;;;16.20;99.90;;;;;;4946280;28;20050;-85
2022/09/05 02:58:47;;;;;;;6.47;3.20;;;16.20;99.90;;;;;;4953856;28;20050;-85
2022/09/05 03:01:50;;;;;;;9.98;3.03;;;16.10;99.90;;;;;;4908197;29;20096;-85
2022/09/05 03:04:26;;;;;;;7.72;2.83;;;16.10;99.90;;;;;;4950757;28;20042;-85
2022/09/05 03:07:07;;;;;;;4.82;2.88;;;16.00;99.90;;;;;;4969313;28;20554;-85
2022/09/05 03:09:47;;;;;;;6.15;3.00;;;15.90;99.90;;;;;;4956906;28;20054;-85
2022/09/05 03:12:51;;;;;;;3.83;2.83;;;15.90;99.90;;;;;;4951926;28;20031;-85
2022/09/05 03:15:43;;;;;;;4.78;2.50;;;15.90;99.90;;;;;;4928291;28;20161;-85
2022/09/05 03:18:47;;;;;;;6.43;2.50;;;15.80;99.90;;;;;;4940941;28;20468;-85
2022/09/05 03:21:53;;;;;;;3.90;2.25;;;15.80;99.90;;;;;;4960994;28;20490;-85
2022/09/05 03:24:55;;;;;;;5.18;2.42;;;15.70;99.90;;;;;;4944801;28;20543;-85
2022/09/05 03:27:51;;;;;;;7.75;2.63;;;15.70;99.90;;;;;;4949627;28;20031;-85
2022/09/05 03:30:32;;;;;;;5.43;2.55;;;15.60;99.90;;;;;;4917731;28;20046;-85
2022/09/05 03:33:22;;;;;;;5.60;3.30;;;15.60;99.90;;;;;;4945375;28;20027;-85
2022/09/05 03:36:08;;;;;;;7.22;3.38;;;15.70;99.90;;;;;;4956204;28;20077;-85
2022/09/05 03:39:07;;;;;;;6.20;3.13;;;15.70;99.90;;;;;;4948248;28;20035;-85
2022/09/05 03:41:54;;;;;;;5.85;3.35;;;15.70;99.90;;;;;;4949855;28;20031;-85
2022/09/05 03:44:47;;;;;;;7.50;3.45;;;15.60;99.90;;;;;;4950585;28;20034;-84
2022/09/05 03:48:07;;;;;;;4.93;2.90;;;15.60;99.90;;;;;;4952277;28;20048;-85
2022/09/05 03:50:38;;;;;;;5.80;3.28;;;15.60;99.90;;;;;;4891973;29;20048;-85
2022/09/05 03:53:33;;;;;;;4.88;3.05;;;15.60;99.90;;;;;;4942853;28;20035;-85
2022/09/05 03:56:37;;;;;;;9.15;3.63;;;15.60;99.90;;;;;;4947319;28;20035;-85
2022/09/05 03:59:43;;;;;;;5.70;3.77;;;15.60;99.90;;;;;;4943444;28;20391;-85
2022/09/05 04:02:12;;;;;;;6.63;3.30;;;15.60;99.90;;;;;;4937337;28;20053;-85
2022/09/05 04:04:41;;;;;;;5.97;3.70;;;15.60;99.90;;;;;;4956683;28;20037;-85
2022/09/05 04:07:17;;;;;;;9.25;3.72;;;15.60;99.90;;;;;;4946926;28;20035;-85
2022/09/05 04:09:49;;;;;;;6.00;3.35;;;15.50;99.90;;;;;;4951111;28;20042;-85
2022/09/05 04:12:19;;;;;;;7.82;3.38;;;15.50;99.90;;;;;;4953640;28;20499;-85
2022/09/05 04:15:03;;;;;;;5.25;3.22;;;15.50;99.90;;;;;;4950232;28;20119;-85
2022/09/05 04:17:35;;;;;;;7.43;3.50;;;15.50;99.90;;;;;;4947759;28;20023;-85
2022/09/05 04:20:07;;;;;;;4.40;2.85;;;15.50;99.90;;;;;;4945833;28;20031;-85
2022/09/05 04:23:23;;;;;;;4.47;3.45;;;15.50;99.90;;;;;;4941924;28;20042;-85
2022/09/05 04:26:02;;;;;;;4.78;3.13;;;15.50;99.90;;;;;;4943121;28;20043;-85
2022/09/05 04:28:36;;;;;;;4.60;2.85;;;15.50;99.90;;;;;;4948699;28;20106;-85
2022/09/05 04:31:05;;;;;;;;;;;15.50;99.90;;;;;;4951787;28;20045;-86
2022/09/05 04:33:46;;;;;;;7.25;3.25;;;15.50;99.90;;;;;;4962990;28;19957;-84
2022/09/05 04:36:31;;;;;;;4.55;2.92;;;15.50;99.90;;;;;;4948995;28;20032;-85
2022/09/05 04:39:16;;;;;;;5.50;2.83;;;15.50;99.90;;;;;;4961313;28;20067;-85
2022/09/05 04:41:49;;;;;;;6.13;2.72;;;15.50;99.90;;;;;;4949745;28;20027;-85
2022/09/05 04:44:26;;;;;;;6.47;3.28;;;15.50;99.90;;;;;;4945651;28;20034;-84
2022/09/05 04:46:57;;;;;;;5.07;3.35;;;15.40;99.90;;;;;;4943295;28;20035;-86
2022/09/05 04:49:22;;;;;;;7.82;3.00;;;15.40;99.90;;;;;;4973293;23;20494;-81
2022/09/05 04:52:21;;;;;;;5.50;2.85;;;15.40;99.90;;;;;;5003418;28;20081;-81
2022/09/05 04:55:25;;;;;;;5.78;3.42;;;15.40;99.90;;;;;;5001156;28;20026;-80
2022/09/05 04:57:56;;;;;;;6.07;3.10;;;15.40;99.90;;;;;;4984623;28;20098;-80
2022/09/05 05:00:47;;;;;;;10.77;4.07;;;15.40;99.90;;;;;;5017225;28;20263;-81
2022/09/05 05:03:30;;;;;;;7.28;3.13;;;15.40;99.90;;;;;;5010350;28;20037;-83
2022/09/05 05:05:57;;;;;;;7.53;3.60;;;15.40;99.90;;;;;;4999818;28;20390;-82
2022/09/05 05:08:47;;;;;;;7.65;4.13;;;15.40;99.90;;;;;;4986451;28;20021;-83
2022/09/05 05:11:18;;;;;;;4.82;3.38;;;15.50;99.90;;;;;;4998997;28;20495;-83
2022/09/05 05:13:57;;;;;;;6.20;3.60;;;15.50;99.90;;;;;;5001304;28;20483;-83
2022/09/05 05:16:45;;;;;;;7.82;3.85;;;15.50;99.90;;;;;;4999943;28;20026;-83
2022/09/05 05:19:10;;;;;;;8.75;3.83;;;15.50;99.90;;;;;;5015873;28;20060;-86
2022/09/05 05:21:42;;;;;;;9.20;3.40;;;15.60;99.90;;;;;;5015667;28;20403;-81
2022/09/05 05:24:22;;;;;;;7.78;3.10;;;15.60;99.90;;;;;;5000967;28;20684;-83
2022/09/05 05:27:17;;;;;;;8.57;3.25;;;15.60;99.90;;;;;;4988775;28;20057;-78
2022/09/05 05:29:58;;;;;;;8.70;4.00;;;15.70;99.90;;;;;;4993713;28;20026;-78
2022/09/05 05:32:46;;;;;;;12.68;3.85;;;15.70;99.90;;;;;;4984015;28;20026;-77
2022/09/05 05:35:23;;;;;;;12.95;4.28;;;15.80;99.90;;;;;;4982610;28;20460;-78
2022/09/05 05:37:56;;;;;;;6.03;3.85;;;15.80;99.90;;;;;;5004810;28;20162;-77
2022/09/05 05:40:33;;;;;;;6.80;4.18;;;15.90;99.90;;;;;;4992868;28;20023;-78
2022/09/05 05:43:24;;;;;;;8.10;3.67;;;16.00;99.90;;;;;;4986672;28;20518;-77
2022/09/05 05:46:06;;;;;;;11.65;4.15;;;16.00;99.90;;;;;;4988698;28;20066;-79
2022/09/05 05:48:40;;;;;;;8.60;4.22;;;16.10;99.90;;;;;;4996640;28;20056;-82
2022/09/05 05:51:17;;;;;;;9.07;4.57;;;16.10;99.90;;;;;;5000885;28;20041;-81
2022/09/05 05:54:04;;;;;;;7.35;4.47;;;16.20;99.90;;;;;;5000519;28;20034;-83
2022/09/05 05:56:58;;;;;;;14.50;4.22;;;16.20;99.90;;;;;;4995236;28;20026;-81
2022/09/05 06:00:01;;;;;;;11.20;4.07;;;16.30;99.90;;;;;;4984723;28;20026;-81
2022/09/05 06:03:01;;;;;;;8.73;4.20;;;16.40;99.90;;;;;;4997003;28;20045;-83
2022/09/05 06:05:52;;;;;;;10.25;4.45;;;16.40;99.90;;;;;;4979416;28;20030;-83
2022/09/05 06:08:37;;;;;;;12.88;4.43;;;16.50;99.90;;;;;;4965889;28;20121;-83
2022/09/05 06:11:51;;;;;;;15.23;4.75;;;16.60;99.90;;;;;;4997953;28;20026;-81
2022/09/05 06:14:37;;;;;;;6.43;3.70;;;16.60;99.90;;;;;;4990328;28;20467;-82
2022/09/05 06:17:47;;;;;;;7.20;3.53;;;16.70;99.90;;;;;;4997152;28;20137;-83
2022/09/05 06:20:33;;;;;;;7.93;3.70;;;16.70;99.90;;;;;;4964420;28;20027;-81
2022/09/05 06:23:20;;;;;;;6.85;3.58;;;16.80;99.90;;;;;;4979966;28;20110;-81
2022/09/05 06:26:20;;;;;;;6.72;3.78;;;16.80;99.90;;;;;;4980863;28;20039;-83
2022/09/05 06:29:00;;;;;;;6.93;3.50;;;16.80;99.90;;;;;;4982174;28;20059;-84
2022/09/05 06:32:06;;;;;;;7.50;3.88;;;16.90;99.90;;;;;;5007201;28;20022;-84
2022/09/05 06:34:58;;;;;;;15.50;3.38;;;16.90;99.90;;;;;;4997751;28;20423;-82
2022/09/05 06:38:05;;;;;;;7.53;3.15;;;17.00;99.90;;;;;;5013418;28;20018;-84
2022/09/05 06:40:38;;;;;;;6.90;3.90;;;17.00;99.90;;;;;;4993992;28;20471;-83
2022/09/05 06:43:31;;;;;;;5.47;2.78;;;17.10;99.90;;;;;;4981238;28;20033;-83
2022/09/05 06:46:15;;;;;;;9.73;4.20;;;17.10;99.90;;;;;;4986809;28;20035;-82
2022/09/05 06:49:00;;;;;;;9.98;4.25;;;17.10;99.90;;;;;;4990109;28;20042;-80
2022/09/05 06:51:36;;;;;;;9.23;4.20;;;17.10;99.90;;;;;;4988512;28;20027;-84
2022/09/05 06:54:11;;;;;;;9.73;4.60;;;17.10;99.90;;;;;;4985547;28;20037;-84
2022/09/05 06:57:14;;;;;;;8.13;4.13;;;17.20;99.90;;;;;;4979389;28;20034;-84
2022/09/05 07:00:07;;;;;;;8.63;4.40;;;17.20;99.90;;;;;;4980712;28;20121;-84
2022/09/05 07:02:35;;;;;;;7.30;3.88;;;17.30;99.90;;;;;;4981642;28;20023;-84
2022/09/05 07:05:35;;;;;;;9.77;5.15;;;17.30;99.90;;;;;;4992375;28;20066;-83
2022/09/05 07:08:25;;;;;;;9.60;4.90;;;17.40;99.90;;;;;;4999537;28;20018;-83
2022/09/05 07:10:57;;;;;;;6.70;4.93;;;17.40;99.90;;;;;;5000691;28;20129;-83
2022/09/05 07:13:39;;;;;;;6.13;4.88;;;17.50;99.90;;;;;;5000763;28;20026;-84
2022/09/05 07:16:32;;;;;;;8.63;5.03;;;17.50;99.90;;;;;;4998727;28;20058;-81
2022/09/05 07:19:16;;;;;;;7.78;4.78;;;17.60;99.90;;;;;;5016067;28;20029;-83
2022/09/05 07:21:50;;;;;;;8.50;4.68;;;17.60;99.90;;;;;;5016017;28;20392;-82
2022/09/05 07:24:22;;;;;;;7.97;5.28;;;17.70;99.90;;;;;;5015776;28;20050;-84
2022/09/05 07:26:49;;;;;;;6.18;4.63;;;17.80;99.90;;;;;;5016960;28;20023;-83
2022/09/05 07:29:20;;;;;;;10.23;5.10;;;17.80;99.90;;;;;;5016609;28;20026;-82
2022/09/05 07:31:52;;;;;;;7.63;4.60;;;17.90;99.90;;;;;;5017364;28;20407;-84
2022/09/05 07:34:28;;;;;;;6.15;4.22;;;17.90;99.90;;;;;;5001551;28;20030;-82
2022/09/05 07:37:37;;;;;;;6.00;4.25;;;18.00;99.90;;;;;;5019216;28;20077;-84
2022/09/05 07:40:08;;;;;;;8.45;4.43;;;18.00;99.90;;;;;;5019607;28;20026;-83
2022/09/05 07:43:03;;;;;;;6.50;4.88;;;18.10;99.90;;;;;;5004212;28;20493;-82
2022/09/05 07:45:30;;;;;;;6.28;4.65;;;18.10;99.90;;;;;;5019088;28;20505;-83
2022/09/05 07:48:26;;;;;;;8.60;5.25;;;18.20;99.90;;;;;;5001570;28;20496;-82
2022/09/05 07:51:16;;;;;;;7.10;4.03;;;18.30;99.90;;;;;;4977655;28;20047;-85
2022/09/05 07:53:43;;;;;;;8.02;4.32;;;18.30;99.90;;;;;;4998654;28;20458;-83
2022/09/05 07:56:11;;;;;;;8.30;4.07;;;18.40;99.90;;;;;;5022898;28;20447;-84
2022/09/05 07:58:53;;;;;;;6.65;4.13;;;18.50;99.90;;;;;;5038665;28;20113;-84
2022/09/05 08:01:21;;;;;;;9.23;4.05;;;18.60;99.90;;;;;;5020861;28;20023;-83
2022/09/05 08:03:56;;;;;;;7.07;3.75;;;18.60;99.90;;;;;;5006001;28;20074;-82
2022/09/05 08:06:24;;;;;;;4.50;3.13;;;18.70;99.90;;;;;;5020682;28;20030;-83
2022/09/05 08:09:22;;;;;;;8.98;3.72;;;18.80;99.90;;;;;;5005262;28;20022;-84
2022/09/05 08:11:50;;;;;;;8.07;3.33;;;18.90;99.90;;;;;;4995992;28;20035;-84
2022/09/05 08:14:53;;;;;;;8.15;3.67;;;18.90;99.90;;;;;;5020329;28;20372;-84
2022/09/05 08:17:32;;;;;;;5.82;3.20;;;19.10;99.90;;;;;;5002467;28;20114;-84
2022/09/05 08:20:32;;;;;;;7.05;3.08;;;19.10;99.90;;;;;;5019159;28;20426;-84
2022/09/05 08:23:22;;;;;;;5.13;3.03;;;19.20;99.90;;;;;;5001712;28;20054;-83
2022/09/05 08:26:33;;;;;;;11.80;5.80;;;19.30;99.90;;;;;;5003443;28;20022;-84
2022/09/05 08:29:19;;;;;;;6.20;3.42;;;19.40;99.90;;;;;;4984693;28;20080;-84
2022/09/05 08:31:50;;;;;;;10.75;3.60;;;19.60;99.90;;;;;;5001190;28;20041;-82
2022/09/05 08:34:31;;;;;;;5.47;3.92;;;19.70;99.90;;;;;;4989854;28;20487;-82
2022/09/05 08:36:59;;;;;;;5.97;3.25;;;19.70;99.90;;;;;;4986948;28;20025;-82
2022/09/05 08:39:28;;;;;;;3.78;3.28;;;19.80;99.90;;;;;;5018973;28;20479;-84
2022/09/05 08:42:05;;;;;;;5.50;3.15;;;19.80;99.90;;;;;;5018863;28;20022;-81
2022/09/05 08:45:10;;;;;;;5.55;3.08;;;19.90;99.90;;;;;;5002986;28;20394;-83
2022/09/05 08:47:54;;;;;;;4.05;2.50;;;20.00;99.90;;;;;;4982254;28;20038;-83
2022/09/05 08:50:29;;;;;;;6.10;3.00;;;20.10;99.90;;;;;;5003350;28;20106;-83
2022/09/05 08:53:36;;;;;;;4.82;2.92;;;20.20;99.90;;;;;;5001984;28;20037;-82
2022/09/05 08:56:27;;;;;;;7.32;3.10;;;20.30;99.90;;;;;;4962518;29;20492;-84
2022/09/05 08:59:03;;;;;;;5.78;2.90;;;20.40;99.90;;;;;;4944397;29;20031;-83
2022/09/05 09:02:03;;;;;;;5.60;2.70;;;20.50;99.90;;;;;;4994759;28;20041;-83
2022/09/05 09:04:41;;;;;;;9.20;3.28;;;20.60;99.90;;;;;;5023069;28;20053;-83
2022/09/05 09:07:22;;;;;;;6.07;2.70;;;20.60;99.90;;;;;;5037668;28;20021;-83
2022/09/05 09:10:30;;;;;;;4.45;3.17;;;20.80;99.90;;;;;;5039214;28;20041;-83
2022/09/05 09:13:11;;;;;;;6.40;2.90;;;20.90;99.90;;;;;;5001145;28;20033;-84
2022/09/05 09:15:56;;;;;;;3.92;2.80;;;20.90;99.90;;;;;;5002964;28;20387;-83
2022/09/05 09:18:52;;;;;;;4.78;2.75;;;21.00;99.90;;;;;;5017741;28;20086;-84
2022/09/05 09:21:37;;;;;;;5.65;2.88;;;21.10;99.90;;;;;;4990959;28;20031;-84
2022/09/05 09:24:10;;;;;;;4.38;2.50;;;21.20;99.90;;;;;;5001924;28;20037;-84
2022/09/05 09:26:49;;;;;;;3.05;2.60;;;21.30;99.90;;;;;;5002311;28;20383;-83
2022/09/05 09:29:17;;;;;;;3.30;2.45;;;21.50;99.90;;;;;;5018068;28;20031;-83
2022/09/05 09:31:52;;;;;;;4.93;2.42;;;21.60;99.90;;;;;;5018503;28;20137;-84
2022/09/05 09:34:53;;;;;;;5.30;2.75;;;21.70;99.90;;;;;;5019595;28;20602;-85
2022/09/05 09:37:59;;;;;;;6.07;3.83;;;21.80;99.90;;;;;;5017879;28;20022;-84
2022/09/05 09:40:28;;;;;;;6.57;3.00;;;21.80;99.90;;;;;;5000226;28;20022;-85
2022/09/05 09:43:33;;;;;;;5.15;3.35;;;21.90;99.90;;;;;;5010147;28;20033;-83
2022/09/05 09:46:18;;;;;;;8.55;2.72;;;22.10;99.90;;;;;;4994027;28;20495;-84
2022/09/05 09:49:23;;;;;;;4.65;2.97;;;22.20;99.90;;;;;;4998954;28;20019;-85
2022/09/05 09:52:07;;;;;;;4.93;2.88;;;22.40;99.90;;;;;;4984450;28;20081;-82
2022/09/05 09:54:47;;;;;;;6.88;2.70;;;22.50;99.90;;;;;;5000597;28;20045;-82
2022/09/05 09:57:47;;;;;;;4.65;2.90;;;22.60;99.90;;;;;;5001428;28;20030;-83
2022/09/05 10:00:19;;;;;;;5.75;2.47;;;22.70;99.90;;;;;;5015311;28;20026;-83
2022/09/05 10:03:22;;;;;;;8.55;3.67;;;22.70;99.90;;;;;;4999840;28;20019;-85
2022/09/05 10:06:13;;;;;;;4.43;2.65;;;22.80;99.90;;;;;;5001760;28;20550;-82
2022/09/05 10:08:53;;;;;;;3.38;2.40;;;22.90;99.90;;;;;;4994371;28;20037;-85
2022/09/05 10:11:58;;;;;;;5.38;2.72;;;23.10;99.90;;;;;;5014896;28;20023;-87
2022/09/05 10:15:17;;;;;;;6.18;3.20;;;23.20;99.90;;;;;;5016428;28;20034;-87
2022/09/05 10:18:20;;;;;;;3.05;2.55;;;23.20;99.90;;;;;;4999524;28;20050;-85
2022/09/05 10:21:32;;;;;;;4.22;3.08;;;23.40;99.90;;;;;;5002935;28;20018;-86
2022/09/05 10:24:28;;;;;;;4.10;2.35;;;23.50;99.90;;;;;;4999259;28;20027;-86
2022/09/05 10:27:28;;;;;;;3.88;2.60;;;23.50;99.90;;;;;;5021821;28;20022;-85
2022/09/05 10:29:53;;;;;;;3.50;2.22;;;23.60;99.90;;;;;;4989096;28;20462;-84
2022/09/05 10:32:33;;;;;;;4.18;2.33;;;23.60;99.90;;;;;;5012112;28;20118;-86
2022/09/05 10:35:26;;;;;;;3.75;2.08;;;23.60;99.90;;;;;;5001720;28;20026;-86
2022/09/05 10:38:39;;;;;;;3.08;2.42;;;23.70;99.90;;;;;;4991494;28;20051;-85
2022/09/05 10:41:15;;;;;;;3.22;2.33;;;23.80;99.90;;;;;;4942508;28;20046;-86
2022/09/05 10:43:58;;;;;;;4.47;2.80;;;23.80;99.90;;;;;;4980241;28;20027;-86
2022/09/05 10:47:03;;;;;;;3.15;2.45;;;23.90;99.90;;;;;;4988370;28;20056;-86
2022/09/05 10:49:36;;;;;;;4.63;2.60;;;24.00;99.90;;;;;;5000597;28;20046;-86
2022/09/05 10:52:09;;;;;;;7.07;2.67;;;24.10;99.90;;;;;;4981942;28;20027;-85
2022/09/05 10:55:14;;;;;;;3.90;2.03;;;24.10;99.90;;;;;;4993403;28;20027;-86
2022/09/05 10:58:05;;;;;;;3.72;2.10;;;24.10;99.90;;;;;;5002794;28;20433;-86
2022/09/05 11:00:37;;;;;;;3.05;2.15;;;24.30;99.90;;;;;;5012542;28;20034;-86
2022/09/05 11:03:05;;;;;;;2.38;1.98;;;24.30;99.90;;;;;;5033737;23;20022;-82
2022/09/05 11:05:37;;;;;;;3.80;2.17;;;24.30;98.60;;;;;;4961395;28;20050;-81
2022/09/05 11:08:09;;;;;;;3.70;1.92;;;24.40;98.20;;;;;;4960921;28;20546;-82
2022/09/05 11:10:35;;;;;;;2.10;1.83;;;24.40;98.20;;;;;;4964158;28;20057;-82
2022/09/05 11:13:13;;;;;;;2.65;1.80;;;24.50;98.20;;;;;;4965748;28;20541;-82
2022/09/05 11:16:05;;;;;;;3.28;2.10;;;24.50;97.60;;;;;;4965051;28;20046;-82
2022/09/05 11:18:51;;;;;;;5.22;2.00;;;24.60;96.80;;;;;;4964876;28;20106;-82
2022/09/05 11:21:24;;;;;;;2.47;1.95;;;24.70;96.90;;;;;;4964630;28;20053;-82
2022/09/05 11:24:22;;;;;;;11.77;2.50;;;24.70;96.90;;;;;;4968724;28;20031;-83
2022/09/05 11:27:23;;;;;;;3.97;2.45;;;24.80;96.50;;;;;;4984594;28;20054;-81
2022/09/05 11:30:01;;;;;;;2.50;2.10;;;24.90;96.10;;;;;;4964672;28;20110;-80
2022/09/05 11:32:45;;;;;;;2.53;1.98;;;24.90;96.50;;;;;;4981285;28;20034;-82
2022/09/05 11:35:17;;;;;;;4.22;1.52;;;24.90;96.70;;;;;;4966072;28;20035;-83
2022/09/05 11:37:58;;;;;;;2.50;1.80;;;24.90;95.60;;;;;;4984996;28;20487;-83
2022/09/05 11:40:48;;;;;;;2.50;1.83;;;25.00;95.60;;;;;;4964359;28;20125;-79
2022/09/05 11:43:35;;;;;;;5.10;2.03;;;25.00;94.90;;;;;;4970150;28;20023;-82
2022/09/05 11:46:12;;;;;;;3.63;1.80;;;25.10;94.40;;;;;;4968153;28;20110;-84
2022/09/05 11:48:59;;;;;;;5.43;2.15;;;25.10;94.70;;;;;;4972611;28;20447;-82
2022/09/05 11:52:02;;;;;;;3.33;1.55;;;25.20;94.50;;;;;;4972525;28;20042;-85
2022/09/05 11:54:33;;;;;;;3.85;1.88;;;25.20;93.80;;;;;;4966749;28;20059;-85
2022/09/05 11:57:30;;;;;;;3.15;1.95;;;25.20;93.90;;;;;;4972531;28;20042;-83
2022/09/05 12:00:21;;;;;;;4.07;2.13;;;25.20;93.90;;;;;;4966160;28;20387;-86
2022/09/05 12:03:05;;;;;;;2.17;1.88;;;25.20;93.40;;;;;;4973314;28;20027;-84
2022/09/05 12:05:51;;;;;;;4.20;1.77;;;25.20;93.50;;;;;;4970085;28;20031;-80
2022/09/05 12:08:42;;;;;;;2.08;1.58;;;25.20;92.90;;;;;;4968662;28;20141;-87
2022/09/05 12:11:41;;;;;;;2.88;1.75;;;25.30;89.80;;;;;;4959236;28;20070;-81
2022/09/05 12:14:12;;;;;;;3.38;1.63;;;25.50;88.40;;;;;;4973470;28;20050;-83
2022/09/05 12:16:53;;;;;;;1.70;1.25;;;25.60;87.70;;;;;;4965706;28;20033;-87
2022/09/05 12:19:37;;;;;;;3.45;1.52;;;25.60;90.00;;;;;;4987820;28;20030;-88
2022/09/05 12:22:27;;;;;;;2.80;1.98;;;25.60;84.90;;;;;;4972113;28;20023;-90
2022/09/05 12:24:58;;;;;;;2.83;1.85;;;25.60;84.70;;;;;;4970196;28;20035;-81
2022/09/05 12:27:31;;;;;;;4.35;1.80;;;25.70;86.90;;;;;;4971660;28;20487;-89
2022/09/05 12:30:03;;;;;;;6.00;1.83;;;25.70;87.50;;;;;;4971513;28;20090;-80
2022/09/05 12:32:32;;;;;;;4.30;2.05;;;25.60;85.70;;;;;;4967062;28;20096;-82
2022/09/05 12:35:00;;;;;;;5.07;1.80;;;25.70;84.20;;;;;;4965810;28;20050;-81
2022/09/05 12:37:31;;;;;;;2.22;1.67;;;25.70;84.50;;;;;;4971951;28;20487;-81
2022/09/05 12:40:13;;;;;;;2.05;1.83;;;25.70;86.00;;;;;;4971561;28;20070;-84
2022/09/05 12:43:01;;;;;;;3.20;1.92;;;25.70;85.60;;;;;;4963846;28;20031;-81
2022/09/05 12:45:30;;;;;;;4.40;1.73;;;25.70;87.00;;;;;;4972531;28;20033;-82
2022/09/05 12:48:08;;;;;;;3.33;1.80;;;25.70;84.80;;;;;;4973429;28;20457;-87
2022/09/05 12:50:54;;;;;;;2.17;1.60;;;25.70;85.30;;;;;;4982897;28;20038;-85
2022/09/05 12:53:23;;;;;;;2.40;1.73;;;25.70;86.10;;;;;;4982704;28;20006;-78
2022/09/05 12:55:54;;;;;;;2.42;1.80;;;25.70;85.70;;;;;;4980994;28;20066;-84
2022/09/05 12:58:28;;;;;;;2.17;1.70;;;25.70;84.80;;;;;;4969346;28;20029;-84
2022/09/05 13:01:12;;;;;;;2.97;2.10;;;25.70;84.40;;;;;;4964844;28;20027;-83
2022/09/05 13:04:21;;;;;;;2.47;1.80;;;25.80;83.90;;;;;;4966944;28;20034;-86
2022/09/05 13:06:59;;;;;;;2.53;1.90;;;25.90;84.20;;;;;;4967093;28;20046;-86
2022/09/05 13:09:40;;;;;;;4.78;2.00;;;25.90;84.80;;;;;;4969997;28;20538;-88
2022/09/05 13:12:23;;;;;;;4.13;2.00;;;25.90;84.20;;;;;;4966030;28;20035;-85
2022/09/05 13:15:11;;;;;;;1.57;1.30;;;26.00;82.30;;;;;;4985439;28;20043;-82
2022/09/05 13:17:38;;;;;;;1.60;1.40;;;26.00;83.20;;;;;;4969196;28;20041;-85
2022/09/05 13:20:31;;;;;;;2.15;1.65;;;26.00;82.90;;;;;;4966328;28;20468;-87
2022/09/05 13:23:07;;;;;;;3.20;1.80;;;25.90;82.20;;;;;;4970687;28;20144;-85
2022/09/05 13:25:35;;;;;;;2.38;1.90;;;25.90;84.00;;;;;;4969351;28;20034;-84
2022/09/05 13:28:08;;;;;;;2.20;1.80;;;26.00;82.10;;;;;;4969949;28;20054;-86
2022/09/05 13:30:47;;;;;;;2.58;1.52;;;25.90;82.80;;;;;;4965986;28;20030;-85
2022/09/05 13:33:25;;;;;;;2.85;1.77;;;25.90;79.90;;;;;;4966037;28;20031;-85
2022/09/05 13:36:04;;;;;;;3.33;1.67;;;25.90;82.50;;;;;;4968078;28;20034;-86
2022/09/05 13:39:03;;;;;;;2.05;1.65;;;25.90;79.20;;;;;;4985879;28;20058;-87
2022/09/05 13:41:35;;;;;;;2.80;1.95;;;25.90;78.00;;;;;;4972857;28;20025;-87
2022/09/05 13:44:12;;;;;;;2.75;2.05;;;25.90;79.10;;;;;;4973443;28;20959;-86
2022/09/05 13:47:05;;;;;;;2.72;2.05;;;25.90;81.70;;;;;;4969793;28;20023;-85
2022/09/05 13:49:48;;;;;;;1.87;1.73;;;25.90;79.00;;;;;;4962879;28;20069;-86
2022/09/05 13:52:26;;;;;;;1.80;1.63;;;25.90;80.80;;;;;;4922815;28;20061;-89
2022/09/05 13:55:11;;;;;;;1.52;1.35;;;25.80;81.30;;;;;;4996176;28;20497;-88
2022/09/05 13:57:52;;;;;;;3.88;1.83;;;25.80;81.10;;;;;;5003862;28;20488;-87
2022/09/05 14:00:21;;;;;;;2.72;1.63;;;25.80;81.20;;;;;;4987613;28;20030;-86
2022/09/05 14:03:24;;;;;;;2.95;1.98;;;25.70;82.30;;;;;;5005278;28;20026;-90
2022/09/05 14:05:59;;;;;;;3.60;2.17;;;25.70;83.00;;;;;;4990713;28;20030;-90
2022/09/05 14:08:32;;;;;;;3.33;1.90;;;25.60;81.50;;;;;;4986040;28;20034;-88
2022/09/05 14:11:10;;;;;;;2.55;1.88;;;25.70;80.00;;;;;;4986693;28;21246;-89
2022/09/05 14:14:22;;;;;;;2.55;1.98;;;25.70;80.00;;;;;;5003635;28;20042;-87
2022/09/05 14:17:10;;;;;;;4.30;1.85;;;25.70;77.50;;;;;;4977316;28;20117;-86